Buffalo, WY (82834)

7:49 PM MST on February 21, 2017 (GMT -0700)
Buffalo | | Change Station
Active Advisory: High Wind Advisory

Elev 4708 ft 44.34 °N, 106.70 °W | Updated 8 seconds ago

Overcast
Overcast
48.0 °F
Feels Like 44 °F
N
9.2
Wind Variable Wind from NNW
Gusts 12.3 mph

Today
High -- | Low -- °F
--% Chance of Precip.
Yesterday
High -- | Low -- °F
Precip. -- in
Pressure 29.72 in
Visibility 10.0 miles
Clouds Overcast 8500 ft
Windchill 44 °F
Dew Point 20 °F
Humidity 32%
Rainfall 0.00 in
Snow Depth Not available.
6:56 AM 5:44 PM
Waning Crescent, 21% visible
METAR KBYG 220153Z AUTO 30012KT 10SM OVC085 09/M03 A2977 RMK AO2 SLP062 T00891033
Pressure 29.72 in
Visibility 10.0 miles
Clouds Overcast 8500 ft
Windchill 44 °F
Dew Point 20 °F
Humidity 32%
Rainfall 0.00 in
Snow Depth Not available.
6:56 AM 5:44 PM
Waning Crescent, 21% visible
METAR KBYG 220153Z AUTO 30012KT 10SM OVC085 09/M03 A2977 RMK AO2 SLP062 T00891033

Get Your Daily Forecast Email!

Thanks for signing up!

Be on the lookout for a verification email in your inbox.

You'll start receiving the daily forecast at 8 AM.

×

10-Day Weather Forecast

Almanac

Astronomy

Feb. 21, 2017 Rise Set
Actual Time
Civil Twilight
Nautical Twilight
Astronomical Twilight
Moon
Length of Visible Light
Length of Day
Tomorrow will be .
, % of the Moon is Illuminated

Today's Extremes

State Highs State Lows

Community

WunderPhotos

Upload Photos

1,962,540 photos uploaded!

WunderBlog® & News

Nearby

Air Quality

  Air Quality AQ Index Pollutant
Not available.

Snow Depth

Station Depth Elevation

Earthquake Activity

City Distance Mag. Time & Date
Minimum magnitude displayed is 2.5.

Coastal Water Temperatures

Place Temperature

Stations

Nearby Weather Stations

Station Location Temp. Windchill Dew Point Humidity Wind Precip. Elev Updated Type
                   

Watches & Warnings

High Wind Advisory
Issued: 7:36 PM MST Feb. 21, 2017 – National Weather Service

... High Wind Warning is cancelled...

The National Weather Service in Riverton has cancelled the High
Wind Warning.

The threat of high winds has moved south of the area. The High
Wind Warning has been cancelled..